Time;durP1;ratioP1;P1;durP2;ratioP2;P2;SDS_P1;SDS_P2;PMS_P1;PMS_P2;Temp;Humidity;BMP_temperature;BMP_pressure;BME280_temperature;BME280_humidity;BME280_pressure;Samples;Min_cycle;Max_cycle;Signal;HPM_P1;HPM_P2
2023/01/24 00:07:25;;;;;;;7.00;6.13;;;;;;;3.95;57.84;102619.94;20889704;28;20918;-85
2023/01/24 00:17:27;;;;;;;7.50;5.90;;;;;;;4.34;55.40;102629.25;20941364;28;20191;-85
2023/01/24 00:27:31;;;;;;;6.57;5.17;;;;;;;4.44;56.38;102624.09;20942615;28;20216;-85
2023/01/24 00:37:33;;;;;;;7.10;5.60;;;;;;;4.42;56.23;102615.09;20907340;28;20208;-85
2023/01/24 00:47:35;;;;;;;5.93;4.73;;;;;;;4.54;54.59;102607.78;20891272;28;20273;-86
2023/01/24 00:57:38;;;;;;;6.00;5.37;;;;;;;4.66;54.75;102611.59;20892143;28;20200;-85
2023/01/24 01:07:40;;;;;;;5.83;5.13;;;;;;;4.03;55.78;102600.25;20906867;28;20273;-86
2023/01/24 01:17:42;;;;;;;5.23;4.30;;;;;;;4.87;53.71;102604.84;20909162;28;20268;-86
2023/01/24 01:27:44;;;;;;;6.23;5.00;;;;;;;4.20;55.88;102632.06;20917848;28;20220;-86
2023/01/24 01:37:47;;;;;;;5.80;4.73;;;;;;;4.38;55.59;102633.28;20890133;28;20265;-85
2023/01/24 01:47:50;;;;;;;5.10;4.17;;;;;;;4.39;53.66;102637.78;20871593;28;20239;-86
2023/01/24 01:57:53;;;;;;;5.10;4.17;;;;;;;4.10;54.56;102620.50;20888789;28;20196;-86
2023/01/24 02:07:59;;;;;;;4.07;3.67;;;;;;;4.54;52.95;102613.34;20903583;28;20227;-86
2023/01/24 02:18:03;;;;;;;4.23;3.70;;;;;;;4.43;53.42;102611.25;21026778;28;20598;-85
2023/01/24 02:28:06;;;;;;;4.63;4.20;;;;;;;3.87;55.12;102612.66;20991778;28;20607;-86
2023/01/24 02:38:19;;;;;;;4.70;4.30;;;;;;;4.24;54.44;102602.75;21013679;28;20494;-86
2023/01/24 02:48:21;;;;;;;4.73;4.10;;;;;;;4.22;53.90;102593.78;20980484;28;20280;-86
2023/01/24 02:58:24;;;;;;;4.87;4.07;;;;;;;4.61;52.56;102591.94;21004472;28;20484;-86
2023/01/24 03:08:28;;;;;;;5.13;3.90;;;;;;;4.70;53.65;102595.34;21040877;28;20284;-86
2023/01/24 03:59:57;;;;;;;5.00;4.43;;;;;;;4.85;51.78;102582.84;21008833;28;20237;-86
2023/01/24 04:10:00;;;;;;;5.30;4.27;;;;;;;4.63;53.51;102578.66;20992687;28;20219;-85
2023/01/24 04:20:06;;;;;;;6.17;5.20;;;;;;;4.58;53.12;102571.03;20964311;28;20669;-86
2023/01/24 04:30:10;;;;;;;6.47;5.10;;;;;;;4.38;53.13;102575.78;20955605;28;20558;-86
2023/01/24 04:40:14;;;;;;;6.03;5.43;;;;;;;3.73;54.77;102571.25;20918586;28;20215;-86
2023/01/24 04:50:17;;;;;;;7.50;5.33;;;;;;;4.28;53.43;102579.03;21024172;28;20303;-86
2023/01/24 05:00:20;;;;;;;7.93;5.20;;;;;;;3.87;54.13;102586.81;20988166;28;20241;-85
2023/01/24 05:10:23;;;;;;;6.33;5.40;;;;;;;3.98;54.43;102586.16;21037646;28;20222;-84
2023/01/24 05:20:27;;;;;;;6.47;5.40;;;;;;;3.70;55.41;102593.91;21040605;28;20195;-83
2023/01/24 05:30:31;;;;;;;7.17;6.03;;;;;;;4.28;54.49;102603.19;21042683;28;20214;-86
2023/01/24 05:40:39;;;;;;;6.63;5.47;;;;;;;3.92;54.80;102609.25;21017832;28;20274;-83
2023/01/24 05:50:42;;;;;;;6.30;5.70;;;;;;;3.43;56.53;102618.84;20944082;28;20211;-85
2023/01/24 06:00:46;;;;;;;6.47;5.80;;;;;;;3.82;54.89;102609.69;20991558;28;20265;-84
2023/01/24 06:11:15;;;;;;;6.93;6.23;;;;;;;4.36;53.65;102632.63;20974758;28;20235;-87
2023/01/24 06:21:44;;;;;;;6.20;5.20;;;;;;;4.00;54.42;102642.31;20986818;28;20199;-88
2023/01/24 06:32:03;;;;;;;6.03;5.43;;;;;;;4.47;53.11;102652.31;20997428;28;20223;-87
2023/01/24 06:42:07;;;;;;;5.87;5.27;;;;;;;4.36;54.36;102660.41;21033641;28;20307;-87
2023/01/24 06:52:09;;;;;;;6.40;5.07;;;;;;;4.52;52.86;102671.06;20985400;28;20279;-86
2023/01/24 07:02:12;;;;;;;5.23;4.67;;;;;;;4.36;53.08;102682.66;21024794;28;20762;-86
2023/01/24 07:12:14;;;;;;;4.60;4.13;;;;;;;4.29;53.06;102683.53;20995260;28;20485;-87
2023/01/24 07:22:17;;;;;;;4.10;3.70;;;;;;;4.13;53.14;102683.13;21013872;28;20202;-88
2023/01/24 07:32:20;;;;;;;4.10;3.40;;;;;;;4.24;54.58;102690.78;21007293;28;20223;-87
2023/01/24 07:42:22;;;;;;;4.40;3.10;;;;;;;4.19;53.37;102696.16;21032260;28;20277;-86
2023/01/24 07:52:24;;;;;;;3.63;3.33;;;;;;;4.01;53.74;102707.91;20975207;28;20649;-87
2023/01/24 08:02:27;;;;;;;5.03;3.93;;;;;;;4.52;52.92;102710.84;21022705;28;20583;-87
2023/01/24 08:12:29;;;;;;;4.17;3.80;;;;;;;4.02;53.19;102712.38;20992079;28;20244;-87
2023/01/24 08:22:31;;;;;;;5.53;4.40;;;;;;;3.56;55.00;102723.47;21003560;28;20216;-86
2023/01/24 08:32:34;;;;;;;4.60;4.20;;;;;;;4.59;51.92;102728.38;21026562;28;20496;-87
2023/01/24 08:42:36;;;;;;;4.17;3.77;;;;;;;3.97;54.09;102728.81;20999716;28;20563;-87
2023/01/24 08:52:38;;;;;;;4.03;3.63;;;;;;;4.50;53.17;102742.69;20987041;28;20611;-87
2023/01/24 09:02:40;;;;;;;5.40;4.57;;;;;;;4.16;52.69;102739.09;21035774;28;20234;-87
2023/01/24 09:12:42;;;;;;;5.23;4.67;;;;;;;4.62;51.83;102754.84;21081344;28;20256;-87
2023/01/24 09:22:45;;;;;;;5.23;4.10;;;;;;;4.42;52.87;102762.38;21002734;28;20221;-88
2023/01/24 09:32:48;;;;;;;5.33;4.83;;;;;;;4.32;52.41;102755.34;20954533;28;20655;-88
2023/01/24 09:43:04;;;;;;;5.10;4.60;;;;;;;4.24;52.79;102774.97;21000253;28;20275;-87
2023/01/24 09:53:16;;;;;;;5.43;4.93;;;;;;;4.74;52.38;102780.91;21039619;28;20222;-86
2023/01/24 10:03:20;;;;;;;5.73;5.13;;;;;;;4.63;52.21;102773.25;21024809;28;20245;-87
2023/01/24 10:13:40;;;;;;;7.20;4.70;;;;;;;4.12;52.91;102770.28;20990720;28;20264;-88
2023/01/24 10:23:50;;;;;;;6.07;5.47;;;;;;;4.59;51.62;102775.63;20981525;28;20454;-87
2023/01/24 10:34:04;;;;;;;5.80;5.20;;;;;;;4.71;52.67;102770.25;21038232;28;20225;-87
2023/01/24 10:44:18;;;;;;;5.90;5.30;;;;;;;5.14;50.30;102769.69;20967024;28;20196;-88
2023/01/24 10:54:22;;;;;;;6.27;5.43;;;;;;;4.98;50.62;102766.34;20990174;28;20245;-88
2023/01/24 11:04:29;;;;;;;6.70;6.00;;;;;;;4.99;51.01;102756.94;20978249;28;20219;-88
2023/01/24 11:14:35;;;;;;;5.97;5.47;;;;;;;4.51;51.80;102750.81;20978239;28;20693;-87
2023/01/24 11:24:44;;;;;;;6.53;5.80;;;;;;;5.24;50.63;102748.72;20999096;28;20222;-87
2023/01/24 11:34:50;;;;;;;6.33;5.73;;;;;;;4.62;51.16;102733.47;21018018;28;20223;-87
2023/01/24 11:45:20;;;;;;;6.57;5.97;;;;;;;5.09;50.92;102733.34;20977794;28;20199;-86
2023/01/24 11:55:38;;;;;;;6.80;6.20;;;;;;;4.26;52.73;102731.19;21009353;28;20244;-87
2023/01/24 12:05:58;;;;;;;6.60;5.80;;;;;;;4.83;51.54;102721.25;21025072;28;20268;-87
2023/01/24 12:16:28;;;;;;;6.30;5.70;;;;;;;4.16;52.86;102710.47;21015742;28;20268;-87
2023/01/24 12:26:52;;;;;;;7.27;5.17;;;;;;;4.25;52.76;102687.81;20996240;28;20274;-86
2023/01/24 12:36:59;;;;;;;6.40;5.50;;;;;;;5.16;51.44;102664.63;20987167;28;20215;-87
2023/01/24 12:47:15;;;;;;;6.23;5.37;;;;;;;5.03;50.21;102666.38;20988402;28;20227;-87
2023/01/24 12:57:32;;;;;;;6.80;5.77;;;;;;;3.98;52.68;102665.81;21028093;28;20243;-87
2023/01/24 13:08:12;;;;;;;5.60;5.00;;;;;;;4.27;53.57;102657.88;20953978;28;20219;-87
2023/01/24 13:18:14;;;;;;;5.40;4.90;;;;;;;4.45;51.26;102656.38;21038107;28;20215;-87
2023/01/24 13:28:36;;;;;;;6.90;5.90;;;;;;;4.16;52.58;102650.22;20979769;28;20500;-86
2023/01/24 13:38:41;;;;;;;5.80;5.20;;;;;;;3.80;52.88;102652.59;20967278;28;20249;-88
2023/01/24 13:48:46;;;;;;;4.67;4.27;;;;;;;4.35;53.30;102644.84;21020052;27;20631;-88
2023/01/24 13:58:51;;;;;;;5.93;5.10;;;;;;;3.87;54.37;102647.88;21022857;28;20486;-88
2023/01/24 14:09:01;;;;;;;5.63;5.10;;;;;;;4.37;51.39;102651.03;21012488;28;20506;-88
2023/01/24 14:19:29;;;;;;;5.27;4.80;;;;;;;4.10;54.14;102673.28;20994617;28;20198;-88
2023/01/24 14:29:40;;;;;;;4.67;4.27;;;;;;;3.80;55.27;102672.03;20970722;28;20223;-87
2023/01/24 14:39:42;;;;;;;4.83;4.43;;;;;;;3.48;54.46;102682.03;21044810;28;20210;-88
2023/01/24 14:49:52;;;;;;;5.27;4.77;;;;;;;3.90;53.70;102673.31;20960580;28;20466;-88
2023/01/24 15:00:04;;;;;;;4.97;4.50;;;;;;;4.10;53.49;102680.75;20970491;28;20191;-88
2023/01/24 15:10:12;;;;;;;5.37;4.20;;;;;;;3.65;54.32;102685.25;20951516;28;20359;-88
2023/01/24 15:20:23;;;;;;;4.90;4.40;;;;;;;3.32;54.44;102686.03;20976123;28;20499;-86
2023/01/24 15:30:27;;;;;;;4.90;4.40;;;;;;;3.71;53.51;102692.72;20966873;28;20222;-87
2023/01/24 15:40:31;;;;;;;5.10;4.60;;;;;;;3.86;52.70;102688.69;21013209;28;20215;-87
2023/01/24 16:00:59;;;;;;;4.87;4.43;;;;;;;4.00;52.82;102678.44;20966885;28;20198;-90
2023/01/24 16:11:02;;;;;;;5.33;4.70;;;;;;;3.34;55.53;102683.91;21001648;28;20627;-91
2023/01/24 16:21:05;;;;;;;5.70;5.17;;;;;;;3.93;53.16;102672.88;20982915;28;20202;-88
2023/01/24 16:31:07;;;;;;;6.70;5.33;;;;;;;3.49;54.18;102676.25;20975254;28;20219;-89
2023/01/24 16:41:13;;;;;;;6.27;5.67;;;;;;;2.50;56.54;102681.41;20956765;28;20264;-87
2023/01/24 16:51:17;;;;;;;6.47;5.87;;;;;;;3.16;54.56;102678.09;20982273;28;20279;-89
2023/01/24 17:01:19;;;;;;;9.13;8.07;;;;;;;3.64;54.17;102673.28;20996315;28;20187;-87
2023/01/24 17:11:22;;;;;;;7.70;6.90;;;;;;;3.43;53.91;102688.22;20966957;28;20227;-88
2023/01/24 17:21:24;;;;;;;8.17;7.33;;;;;;;3.40;54.35;102683.09;20986264;28;20222;-87
2023/01/24 17:31:27;;;;;;;8.83;7.97;;;;;;;3.17;54.34;102671.47;20965682;28;20623;-89
2023/01/24 17:41:29;;;;;;;10.37;8.67;;;;;;;3.67;53.50;102672.88;20998675;28;20268;-88
2023/01/24 17:51:35;;;;;;;10.70;9.43;;;;;;;3.53;54.05;102677.56;20954246;28;20524;-88
2023/01/24 18:01:38;;;;;;;11.03;9.53;;;;;;;2.88;55.40;102679.03;20996000;28;20195;-87
2023/01/24 18:11:40;;;;;;;9.73;8.77;;;;;;;3.20;54.60;102685.75;20985597;28;20607;-89
2023/01/24 18:21:43;;;;;;;9.83;8.63;;;;;;;2.49;56.38;102684.38;20991774;28;20268;-88
2023/01/24 18:31:45;;;;;;;11.37;10.03;;;;;;;2.67;56.72;102684.69;20998446;28;20219;-85
2023/01/24 18:41:48;;;;;;;10.63;9.53;;;;;;;3.42;53.50;102680.09;20968887;28;20700;-86
2023/01/24 18:51:51;;;;;;;10.50;9.40;;;;;;;3.40;54.34;102672.00;20968885;28;20222;-89
2023/01/24 19:01:56;;;;;;;12.43;11.13;;;;;;;3.21;54.27;102668.06;20983113;28;20195;-88
2023/01/24 19:11:59;;;;;;;28.00;17.27;;;;;;;2.82;56.12;102679.00;20973463;28;20223;-88
2023/01/24 19:22:03;;;;;;;17.40;13.20;;;;;;;2.93;54.88;102675.63;20998648;28;20492;-88
2023/01/24 19:32:10;;;;;;;9.93;8.93;;;;;;;2.81;56.37;102671.75;20974047;28;20219;-86
2023/01/24 19:42:12;;;;;;;10.00;9.00;;;;;;;3.25;53.89;102676.81;20990371;28;20211;-86
2023/01/24 19:52:15;;;;;;;9.57;8.67;;;;;;;3.23;54.17;102682.56;21011231;28;20622;-88
2023/01/24 20:02:17;;;;;;;9.90;8.87;;;;;;;3.18;54.75;102687.03;20963758;28;20657;-87
2023/01/24 20:12:20;;;;;;;9.70;8.73;;;;;;;2.13;58.19;102677.13;20969961;28;20245;-87
2023/01/24 20:22:22;;;;;;;11.23;9.93;;;;;;;2.94;55.64;102676.50;20999409;28;20191;-89
2023/01/24 20:32:24;;;;;;;11.20;10.10;;;;;;;2.59;55.54;102689.56;20983767;28;20227;-88
2023/01/24 20:42:40;;;;;;;11.80;10.43;;;;;;;3.14;54.59;102691.28;20994207;28;20210;-87
2023/01/24 20:52:42;;;;;;;9.80;8.83;;;;;;;2.81;55.50;102694.78;20995722;28;20562;-88
2023/01/24 21:02:49;;;;;;;11.47;10.23;;;;;;;3.13;54.99;102697.91;20980805;28;20628;-88
2023/01/24 21:12:51;;;;;;;10.23;9.23;;;;;;;3.15;54.19;102695.78;20962534;28;20519;-88
2023/01/24 21:22:54;;;;;;;10.83;9.83;;;;;;;2.95;55.70;102695.69;20953076;28;20204;-88
2023/01/24 21:32:57;;;;;;;11.17;10.07;;;;;;;3.43;54.16;102685.44;20952491;28;20863;-88
2023/01/24 21:43:01;;;;;;;10.93;9.90;;;;;;;2.72;56.56;102687.72;21013081;28;20211;-87
2023/01/24 21:54:01;;;;;;;13.00;11.27;;;;;;;3.16;54.80;102681.72;20965778;28;20231;-87
2023/01/24 22:03:27;;;;;;;12.53;10.87;;;;;;;3.20;54.69;102676.56;20996000;28;20566;-88
2023/01/24 22:13:29;;;;;;;12.97;11.43;;;;;;;2.54;57.89;102676.31;20980171;28;20246;-87
2023/01/24 22:23:35;;;;;;;12.93;11.50;;;;;;;2.67;56.88;102648.66;20992714;28;20199;-86
2023/01/24 22:33:38;;;;;;;14.40;11.40;;;;;;;2.43;58.10;102657.50;20994220;28;20219;-88
2023/01/24 22:43:40;;;;;;;13.00;11.57;;;;;;;2.61;56.11;102646.72;20965336;28;20542;-88
2023/01/24 22:53:43;;;;;;;14.17;11.70;;;;;;;2.86;55.51;102639.59;20980502;28;20246;-88
2023/01/24 23:03:45;;;;;;;12.57;11.23;;;;;;;2.46;56.17;102646.88;20994170;28;20219;-88
2023/01/24 23:24:10;;;;;;;13.33;12.03;;;;;;;3.53;54.27;102626.75;20966750;28;20198;-88
2023/01/24 23:34:31;;;;;;;14.17;12.70;;;;;;;3.36;53.31;102615.22;20968784;28;20276;-87
2023/01/24 23:44:33;;;;;;;11.47;10.27;;;;;;;3.60;55.06;102606.25;20970871;28;20203;-88
2023/01/24 23:54:35;;;;;;;12.90;11.60;;;;;;;3.45;53.26;102596.44;20991277;28;20219;-86
